Time;durP1;ratioP1;P1;durP2;ratioP2;P2;SDS_P1;SDS_P2;PMS_P1;PMS_P2;Temp;Humidity;BMP_temperature;BMP_pressure;BME280_temperature;BME280_humidity;BME280_pressure;Samples;Min_cycle;Max_cycle;Signal;HPM_P1;HPM_P2
2022/02/19 00:00:13;;;;;;;;;;;10.10;99.90;;;;;;4163520;28;19928;-51
2022/02/19 00:02:15;;;;;;;;;;;10.10;99.90;;;;;;4170037;28;20024;-52
2022/02/19 00:04:18;;;;;;;;;;;10.10;99.90;;;;;;4171212;28;19929;-51
2022/02/19 00:06:20;;;;;;;;;;;10.10;99.90;;;;;;4176859;28;19976;-51
2022/02/19 00:08:22;;;;;;;;;;;10.10;99.90;;;;;;4171295;28;20032;-52
2022/02/19 00:10:24;;;;;;;;;;;10.10;99.90;;;;;;4168740;28;19931;-51
2022/02/19 00:12:26;;;;;;;;;;;10.20;99.90;;;;;;4166180;28;19983;-51
2022/02/19 00:14:28;;;;;;;;;;;10.10;99.90;;;;;;4172912;28;20347;-49
2022/02/19 00:16:30;;;;;;;;;;;10.10;99.90;;;;;;4167665;28;20492;-51
2022/02/19 00:18:33;;;;;;;;;;;10.10;99.90;;;;;;4171042;28;20463;-50
2022/02/19 00:20:34;;;;;;;;;;;10.10;99.90;;;;;;4174814;28;19925;-51
2022/02/19 00:22:36;;;;;;;;;;;10.10;99.90;;;;;;4167325;28;20380;-51
2022/02/19 00:24:38;;;;;;;;;;;10.10;99.90;;;;;;4169183;28;19952;-52
2022/02/19 00:26:40;;;;;;;;;;;10.00;99.90;;;;;;4175297;28;20023;-52
2022/02/19 00:28:42;;;;;;;;;;;10.00;99.90;;;;;;4183502;28;19929;-51
2022/02/19 00:30:44;;;;;;;;;;;10.10;99.90;;;;;;4167388;28;20389;-51
2022/02/19 00:32:46;;;;;;;;;;;10.00;99.90;;;;;;4175172;28;19925;-51
2022/02/19 00:34:48;;;;;;;;;;;10.10;99.90;;;;;;4169946;28;20994;-51
2022/02/19 00:36:50;;;;;;;;;;;10.10;99.90;;;;;;4173855;28;19933;-51
2022/02/19 00:38:52;;;;;;;;;;;10.10;99.90;;;;;;4173606;28;19928;-51
2022/02/19 00:40:54;;;;;;;;;;;10.00;99.90;;;;;;4174134;28;19925;-51
2022/02/19 00:42:56;;;;;;;;;;;10.10;99.90;;;;;;4177690;28;19956;-52
2022/02/19 00:44:57;;;;;;;;;;;10.10;99.90;;;;;;4174547;28;20433;-51
2022/02/19 00:47:00;;;;;;;;;;;10.20;99.90;;;;;;4172380;28;19955;-52
2022/02/19 00:49:03;;;;;;;;;;;10.10;99.90;;;;;;4177320;28;20278;-50
2022/02/19 00:51:04;;;;;;;;;;;10.10;99.90;;;;;;4172080;28;19929;-53
2022/02/19 00:53:06;;;;;;;;;;;10.20;99.90;;;;;;4175454;28;19929;-50
2022/02/19 00:55:09;;;;;;;;;;;10.20;99.90;;;;;;4171814;28;19924;-52
2022/02/19 00:57:11;;;;;;;;;;;10.10;99.90;;;;;;4174417;28;19932;-52
2022/02/19 00:59:13;;;;;;;;;;;10.10;99.90;;;;;;4176986;28;20360;-52
2022/02/19 01:01:15;;;;;;;;;;;10.10;99.90;;;;;;4177381;28;19981;-51
2022/02/19 01:03:17;;;;;;;;;;;10.10;99.90;;;;;;4174556;28;19925;-51
2022/02/19 01:05:19;;;;;;;;;;;10.10;99.90;;;;;;4175823;28;19971;-52
2022/02/19 01:07:23;;;;;;;;;;;10.10;99.90;;;;;;4175592;28;19933;-52
2022/02/19 01:09:26;;;;;;;;;;;10.10;99.90;;;;;;4175517;28;19931;-52
2022/02/19 01:11:32;;;;;;;;;;;10.10;99.90;;;;;;4175990;28;19931;-52
2022/02/19 01:13:41;;;;;;;;;;;10.10;99.90;;;;;;4176593;28;20586;-52
2022/02/19 01:15:43;;;;;;;;;;;10.00;99.90;;;;;;4174516;28;19925;-52
2022/02/19 01:17:45;;;;;;;;;;;10.00;99.90;;;;;;4174730;28;20340;-53
2022/02/19 01:19:47;;;;;;;;;;;10.00;99.90;;;;;;4165183;28;19925;-52
2022/02/19 01:21:49;;;;;;;;;;;10.00;99.90;;;;;;4168774;28;19979;-52
2022/02/19 01:23:51;;;;;;;;;;;10.00;99.90;;;;;;4175862;28;19983;-51
2022/02/19 01:25:53;;;;;;;;;;;10.00;99.90;;;;;;4167540;28;19925;-51
2022/02/19 01:27:55;;;;;;;;;;;10.00;99.90;;;;;;4166886;28;19925;-52
2022/02/19 01:29:58;;;;;;;;;;;10.00;99.90;;;;;;4160652;28;19936;-52
2022/02/19 01:32:00;;;;;;;;;;;9.90;99.90;;;;;;4167871;28;19983;-53
2022/02/19 01:34:02;;;;;;;;;;;9.90;99.90;;;;;;4168769;28;20012;-51
2022/02/19 01:36:04;;;;;;;;;;;9.80;99.90;;;;;;4165663;28;20015;-51
2022/02/19 01:38:05;;;;;;;;;;;9.80;99.90;;;;;;4174688;28;20544;-51
2022/02/19 01:40:07;;;;;;;;;;;9.70;99.90;;;;;;4170088;28;19995;-52
2022/02/19 01:42:10;;;;;;;;;;;9.80;99.90;;;;;;4169141;28;20412;-51
2022/02/19 01:44:12;;;;;;;;;;;9.80;99.90;;;;;;4177238;28;20397;-51
2022/02/19 01:46:14;;;;;;;;;;;9.80;99.90;;;;;;4169813;28;19931;-52
2022/02/19 01:48:16;;;;;;;;;;;9.80;99.90;;;;;;4180147;28;19925;-52
2022/02/19 01:50:18;;;;;;;;;;;9.70;99.90;;;;;;4178099;28;20397;-49
2022/02/19 01:52:20;;;;;;;;;;;9.70;99.90;;;;;;4168033;28;19924;-51
2022/02/19 01:54:23;;;;;;;;;;;9.70;99.90;;;;;;4172726;28;19998;-53
2022/02/19 01:56:25;;;;;;;;;;;9.60;99.90;;;;;;4177949;28;20393;-52
2022/02/19 01:58:27;;;;;;;;;;;9.60;99.90;;;;;;4169905;28;19929;-52
2022/02/19 02:00:29;;;;;;;;;;;9.70;99.90;;;;;;4175066;28;19929;-53
2022/02/19 02:02:32;;;;;;;;;;;9.70;99.90;;;;;;4177359;28;20024;-54
2022/02/19 02:04:34;;;;;;;;;;;9.70;99.90;;;;;;4178534;28;20019;-53
2022/02/19 02:06:36;;;;;;;;;;;9.70;99.90;;;;;;4175984;28;20428;-53
2022/02/19 02:08:38;;;;;;;;;;;9.70;99.90;;;;;;4175585;28;19928;-54
2022/02/19 02:10:40;;;;;;;;;;;9.70;99.90;;;;;;4173696;28;19947;-53
2022/02/19 02:12:42;;;;;;;;;;;9.70;99.90;;;;;;4165111;28;19933;-54
2022/02/19 02:14:44;;;;;;;;;;;9.70;99.90;;;;;;4176880;28;19955;-52
2022/02/19 02:16:46;;;;;;;;;;;9.70;99.90;;;;;;4169481;28;19928;-53
2022/02/19 02:18:49;;;;;;;;;;;9.60;99.90;;;;;;4179071;28;20027;-52
2022/02/19 02:20:51;;;;;;;;;;;9.70;99.90;;;;;;4170113;28;20617;-53
2022/02/19 02:22:53;;;;;;;;;;;9.70;99.90;;;;;;4167846;28;19929;-52
2022/02/19 02:24:55;;;;;;;;;;;9.70;99.90;;;;;;4177709;28;19929;-53
2022/02/19 02:26:58;;;;;;;;;;;9.60;99.90;;;;;;4171375;28;20019;-54
2022/02/19 02:29:00;;;;;;;;;;;9.60;99.90;;;;;;4165776;28;20007;-54
2022/02/19 02:31:03;;;;;;;;;;;9.60;99.90;;;;;;4166538;28;20428;-54
2022/02/19 02:33:06;;;;;;;;;;;9.60;99.90;;;;;;4173490;28;19986;-53
2022/02/19 02:35:08;;;;;;;;;;;9.60;99.90;;;;;;4178955;28;19925;-53
2022/02/19 02:37:11;;;;;;;;;;;9.50;99.90;;;;;;4178266;28;20044;-53
2022/02/19 02:39:13;;;;;;;;;;;9.50;99.90;;;;;;4177965;28;20300;-54
2022/02/19 02:41:15;;;;;;;;;;;9.50;99.90;;;;;;4178425;28;19971;-53
2022/02/19 02:43:17;;;;;;;;;;;9.50;99.90;;;;;;4167559;28;19933;-52
2022/02/19 02:45:19;;;;;;;;;;;9.40;99.90;;;;;;4170829;28;19976;-53
2022/02/19 02:47:43;;;;;;;;;;;9.40;99.90;;;;;;4178234;28;19932;-53
2022/02/19 02:49:45;;;;;;;;;;;9.40;99.90;;;;;;4178860;28;19975;-53
2022/02/19 02:51:47;;;;;;;;;;;9.40;99.90;;;;;;4176618;28;20008;-53
2022/02/19 02:53:49;;;;;;;;;;;9.40;99.90;;;;;;4177750;28;20447;-53
2022/02/19 02:55:52;;;;;;;;;;;9.40;99.90;;;;;;4178964;28;19948;-54
2022/02/19 02:57:54;;;;;;;;;;;9.40;99.90;;;;;;4175651;28;19990;-53
2022/02/19 02:59:55;;;;;;;;;;;9.40;99.90;;;;;;4177802;28;20004;-52
2022/02/19 03:01:57;;;;;;;;;;;9.30;99.90;;;;;;4177114;28;20309;-53
2022/02/19 03:03:59;;;;;;;;;;;9.40;99.90;;;;;;4174006;28;19929;-54
2022/02/19 03:06:04;;;;;;;;;;;9.40;99.90;;;;;;4164040;28;20278;-53
2022/02/19 03:08:06;;;;;;;;;;;9.30;99.90;;;;;;4177749;28;19955;-53
2022/02/19 03:10:09;;;;;;;;;;;9.40;99.90;;;;;;4175820;28;19925;-54
2022/02/19 03:12:10;;;;;;;;;;;9.30;99.90;;;;;;4176820;28;19931;-54
2022/02/19 03:14:12;;;;;;;;;;;9.30;99.90;;;;;;4168751;28;19995;-52
2022/02/19 03:16:14;;;;;;;;;;;9.30;99.90;;;;;;4186041;28;20288;-54
2022/02/19 03:18:17;;;;;;;;;;;9.30;99.90;;;;;;4177772;28;20451;-53
2022/02/19 03:20:21;;;;;;;;;;;9.30;99.90;;;;;;4172149;28;20016;-54
2022/02/19 03:22:23;;;;;;;;;;;9.30;99.90;;;;;;4168476;28;19933;-53
2022/02/19 03:24:24;;;;;;;;;;;9.20;99.90;;;;;;4175943;28;19925;-54
2022/02/19 03:26:26;;;;;;;;;;;9.20;99.90;;;;;;4172758;28;19936;-54
2022/02/19 03:28:28;;;;;;;;;;;9.20;99.90;;;;;;4169226;28;20312;-54
2022/02/19 03:30:30;;;;;;;;;;;9.20;99.90;;;;;;4167168;28;19986;-53
2022/02/19 03:32:32;;;;;;;;;;;9.10;99.90;;;;;;4174156;28;20060;-54
2022/02/19 03:34:34;;;;;;;;;;;9.10;99.90;;;;;;4167228;28;19929;-50
2022/02/19 03:36:36;;;;;;;;;;;9.10;99.90;;;;;;4162485;28;19929;-54
2022/02/19 03:38:38;;;;;;;;;;;9.10;99.90;;;;;;4176035;28;20372;-54
2022/02/19 03:40:40;;;;;;;;;;;9.10;99.90;;;;;;4167535;28;19925;-53
2022/02/19 03:42:42;;;;;;;;;;;9.10;99.90;;;;;;4171911;28;19929;-54
2022/02/19 03:44:44;;;;;;;;;;;9.10;99.90;;;;;;4175107;28;19925;-54
2022/02/19 03:46:47;;;;;;;;;;;9.00;99.90;;;;;;4167451;28;19924;-54
2022/02/19 03:48:48;;;;;;;;;;;9.00;99.90;;;;;;4173715;28;20357;-54
2022/02/19 03:50:50;;;;;;;;;;;9.00;99.90;;;;;;4174774;28;19956;-54
2022/02/19 03:52:53;;;;;;;;;;;9.00;99.90;;;;;;4170666;28;20028;-55
2022/02/19 03:54:55;;;;;;;;;;;9.00;99.90;;;;;;4174632;28;19928;-54
2022/02/19 03:56:57;;;;;;;;;;;8.90;99.90;;;;;;4173286;28;19925;-53
2022/02/19 03:58:59;;;;;;;;;;;8.90;99.90;;;;;;4170441;28;19968;-54
2022/02/19 04:01:01;;;;;;;;;;;8.90;99.90;;;;;;4174514;28;20376;-54
2022/02/19 04:03:03;;;;;;;;;;;8.90;99.90;;;;;;4171916;28;19939;-54
2022/02/19 04:05:09;;;;;;;;;;;8.90;99.90;;;;;;4173774;28;19971;-54
2022/02/19 04:07:11;;;;;;;;;;;8.90;99.90;;;;;;4168491;28;20503;-53
2022/02/19 04:09:13;;;;;;;;;;;9.00;99.90;;;;;;4174860;28;20599;-53
2022/02/19 04:11:15;;;;;;;;;;;9.00;99.90;;;;;;4174426;28;19968;-53
2022/02/19 04:13:17;;;;;;;;;;;9.00;99.90;;;;;;4176875;28;19929;-53
2022/02/19 04:15:19;;;;;;;;;;;9.00;99.90;;;;;;4174620;28;19932;-54
2022/02/19 04:17:24;;;;;;;;;;;9.00;99.90;;;;;;4175530;28;19971;-54
2022/02/19 04:19:25;;;;;;;;;;;9.00;99.90;;;;;;4177259;28;19925;-53
2022/02/19 04:21:27;;;;;;;;;;;9.00;99.90;;;;;;4173962;28;19932;-53
2022/02/19 04:23:29;;;;;;;;;;;9.10;99.90;;;;;;4175354;28;19925;-53
2022/02/19 04:25:32;;;;;;;;;;;9.10;99.90;;;;;;4176596;28;20349;-53
2022/02/19 04:27:34;;;;;;;;;;;9.20;99.90;;;;;;4176181;28;20035;-53
2022/02/19 04:29:36;;;;;;;;;;;9.10;99.90;;;;;;4177171;28;20027;-54
2022/02/19 04:31:39;;;;;;;;;;;9.10;99.90;;;;;;4176464;28;19925;-52
2022/02/19 04:33:41;;;;;;;;;;;9.20;99.90;;;;;;4175782;28;20339;-54
2022/02/19 04:35:45;;;;;;;;;;;9.20;99.90;;;;;;4177603;28;20412;-53
2022/02/19 04:37:47;;;;;;;;;;;9.20;99.90;;;;;;4174648;28;19933;-54
2022/02/19 04:39:49;;;;;;;;;;;9.20;99.90;;;;;;4173880;28;19948;-54
2022/02/19 04:41:51;;;;;;;;;;;9.20;99.90;;;;;;4161970;28;19929;-54
2022/02/19 04:43:53;;;;;;;;;;;9.10;99.90;;;;;;4175486;28;19929;-54
2022/02/19 04:45:55;;;;;;;;;;;9.10;99.90;;;;;;4174641;28;20523;-54
2022/02/19 04:47:57;;;;;;;;;;;9.10;99.90;;;;;;4177743;28;19924;-54
2022/02/19 04:49:59;;;;;;;;;;;9.10;99.90;;;;;;4171471;28;19925;-54
2022/02/19 04:52:01;;;;;;;;;;;9.10;99.90;;;;;;4175914;28;19925;-52
2022/02/19 04:54:03;;;;;;;;;;;9.10;99.90;;;;;;4177233;28;19928;-53
2022/02/19 04:56:05;;;;;;;;;;;9.20;99.90;;;;;;4174637;28;19929;-53
2022/02/19 04:58:07;;;;;;;;;;;9.20;99.90;;;;;;4175480;28;20444;-53
2022/02/19 05:00:10;;;;;;;;;;;9.20;99.90;;;;;;4177036;28;19955;-53
2022/02/19 05:02:12;;;;;;;;;;;9.20;99.90;;;;;;4173394;28;20020;-54
2022/02/19 05:04:14;;;;;;;;;;;9.30;99.90;;;;;;4173306;28;20039;-53
2022/02/19 05:06:16;;;;;;;;;;;9.30;99.90;;;;;;4177660;28;19925;-53
2022/02/19 05:08:18;;;;;;;;;;;9.20;99.90;;;;;;4174875;28;19937;-53
2022/02/19 05:10:20;;;;;;;;;;;9.20;99.90;;;;;;4173307;28;19964;-54
2022/02/19 05:12:22;;;;;;;;;;;9.20;99.90;;;;;;4176607;28;20297;-54
2022/02/19 05:14:24;;;;;;;;;;;9.10;99.90;;;;;;4175057;28;19932;-53
2022/02/19 05:16:25;;;;;;;;;;;9.10;99.90;;;;;;4174734;28;19933;-53
2022/02/19 05:18:27;;;;;;;;;;;9.10;99.90;;;;;;4175549;28;19928;-53
2022/02/19 05:20:29;;;;;;;;;;;9.00;99.90;;;;;;4175419;28;19994;-54
2022/02/19 05:22:31;;;;;;;;;;;9.10;99.90;;;;;;4175867;28;19929;-53
2022/02/19 05:24:33;;;;;;;;;;;9.00;99.90;;;;;;4174545;28;19935;-53
2022/02/19 05:26:35;;;;;;;;;;;9.00;99.90;;;;;;4173526;28;20308;-54
2022/02/19 05:28:37;;;;;;;;;;;8.90;99.90;;;;;;4161802;28;19929;-54
2022/02/19 05:30:39;;;;;;;;;;;9.10;99.90;;;;;;4174696;28;20403;-54
2022/02/19 05:32:41;;;;;;;;;;;9.00;99.90;;;;;;4173356;28;19971;-53
2022/02/19 05:34:43;;;;;;;;;;;9.10;99.90;;;;;;4161848;28;19935;-53
2022/02/19 05:36:46;;;;;;;;;;;9.00;99.90;;;;;;4169621;28;19932;-53
2022/02/19 05:38:48;;;;;;;;;;;9.00;99.90;;;;;;4166925;28;20344;-53
2022/02/19 05:40:50;;;;;;;;;;;9.10;99.90;;;;;;4171797;28;19979;-54
2022/02/19 05:42:51;;;;;;;;;;;9.00;99.90;;;;;;4172100;28;19929;-53
2022/02/19 05:44:54;;;;;;;;;;;9.10;99.90;;;;;;4166589;28;19955;-55
2022/02/19 05:46:55;;;;;;;;;;;9.20;99.90;;;;;;4176478;28;19924;-53
2022/02/19 05:48:57;;;;;;;;;;;9.30;99.90;;;;;;4172074;28;20019;-54
2022/02/19 05:50:59;;;;;;;;;;;9.40;99.90;;;;;;4166721;28;20339;-53
2022/02/19 05:53:04;;;;;;;;;;;9.40;99.90;;;;;;4168050;28;19929;-53
2022/02/19 05:55:06;;;;;;;;;;;9.40;99.90;;;;;;4174905;28;19959;-53
2022/02/19 05:57:08;;;;;;;;;;;9.40;99.90;;;;;;4164951;28;19939;-54
2022/02/19 05:59:10;;;;;;;;;;;9.40;99.90;;;;;;4169779;28;20374;-53
2022/02/19 06:01:12;;;;;;;;;;;9.30;99.90;;;;;;4174077;28;20015;-54
2022/02/19 06:03:15;;;;;;;;;;;9.40;99.90;;;;;;4166114;28;19929;-53
2022/02/19 06:05:17;;;;;;;;;;;9.30;99.90;;;;;;4172095;28;19964;-54
2022/02/19 06:07:18;;;;;;;;;;;9.20;99.90;;;;;;4171867;28;19955;-53
2022/02/19 06:09:20;;;;;;;;;;;9.10;99.90;;;;;;4174017;28;19940;-54
2022/02/19 06:11:22;;;;;;;;;;;9.00;99.90;;;;;;4176537;28;19964;-53
2022/02/19 06:13:24;;;;;;;;;;;9.10;99.90;;;;;;4168914;28;20359;-53
2022/02/19 06:15:26;;;;;;;;;;;9.00;99.90;;;;;;4168545;28;19925;-53
2022/02/19 06:17:28;;;;;;;;;;;9.10;99.90;;;;;;4175154;28;20011;-52
2022/02/19 06:19:30;;;;;;;;;;;9.10;99.90;;;;;;4170178;28;20448;-53
2022/02/19 06:21:32;;;;;;;;;;;9.10;99.90;;;;;;4172506;28;19969;-52
2022/02/19 06:23:34;;;;;;;;;;;9.10;99.90;;;;;;4166452;28;20363;-55
2022/02/19 06:25:36;;;;;;;;;;;9.20;99.90;;;;;;4168958;28;19929;-55
2022/02/19 06:27:38;;;;;;;;;;;9.20;99.90;;;;;;4162438;28;19926;-53
2022/02/19 06:29:40;;;;;;;;;;;9.20;99.90;;;;;;4178188;28;19929;-53
2022/02/19 06:31:42;;;;;;;;;;;9.10;99.90;;;;;;4173753;28;20371;-54
2022/02/19 06:33:44;;;;;;;;;;;9.00;99.90;;;;;;4164201;28;19968;-54
2022/02/19 06:35:46;;;;;;;;;;;9.00;99.90;;;;;;4178425;28;20011;-54
2022/02/19 06:37:48;;;;;;;;;;;9.00;99.90;;;;;;4176145;28;19925;-53
2022/02/19 06:39:50;;;;;;;;;;;9.00;99.90;;;;;;4178805;28;19924;-54
2022/02/19 06:41:52;;;;;;;;;;;9.00;99.90;;;;;;4178452;28;19936;-54
2022/02/19 06:43:54;;;;;;;;;;;9.00;99.90;;;;;;4178265;28;20409;-54
2022/02/19 06:45:56;;;;;;;;;;;8.90;99.90;;;;;;4179396;28;19925;-54
2022/02/19 06:47:58;;;;;;;;;;;8.90;99.90;;;;;;4176420;28;19991;-53
2022/02/19 06:50:00;;;;;;;;;;;9.00;99.90;;;;;;4175798;28;19928;-54
2022/02/19 06:52:02;;;;;;;;;;;8.90;99.90;;;;;;4179212;28;19970;-53
2022/02/19 06:54:04;;;;;;;;;;;9.00;99.90;;;;;;4178537;28;20396;-53
2022/02/19 06:56:06;;;;;;;;;;;8.90;99.90;;;;;;4176300;28;19928;-54
2022/02/19 06:58:08;;;;;;;;;;;9.00;99.90;;;;;;4179426;28;20389;-54
2022/02/19 07:00:11;;;;;;;;;;;9.00;99.90;;;;;;4177093;28;20530;-54
2022/02/19 07:02:12;;;;;;;;;;;9.00;99.90;;;;;;4176797;28;19924;-54
2022/02/19 07:04:15;;;;;;;;;;;9.10;99.90;;;;;;4179440;28;20027;-54
2022/02/19 07:06:17;;;;;;;;;;;9.10;99.90;;;;;;4169715;28;19960;-54
2022/02/19 07:08:19;;;;;;;;;;;9.10;99.90;;;;;;4174650;28;20028;-55
2022/02/19 07:10:21;;;;;;;;;;;9.10;99.90;;;;;;4178385;28;20565;-54
2022/02/19 07:12:23;;;;;;;;;;;9.20;99.90;;;;;;4177136;28;19928;-54
2022/02/19 07:14:25;;;;;;;;;;;9.20;99.90;;;;;;4176086;28;19929;-55
2022/02/19 07:16:30;;;;;;;;;;;9.20;99.90;;;;;;4178275;28;19929;-54
2022/02/19 07:18:32;;;;;;;;;;;9.30;99.90;;;;;;4170966;28;20020;-53
2022/02/19 07:20:36;;;;;;;;;;;9.20;99.90;;;;;;4166224;28;19959;-54
2022/02/19 07:22:37;;;;;;;;;;;9.30;99.90;;;;;;4172549;28;19995;-54
2022/02/19 07:24:40;;;;;;;;;;;9.20;99.90;;;;;;4174054;28;19971;-53
2022/02/19 07:26:42;;;;;;;;;;;9.20;99.90;;;;;;4164161;28;19929;-53
2022/02/19 07:28:46;;;;;;;;;;;9.20;99.90;;;;;;4168028;28;20492;-53
2022/02/19 07:30:48;;;;;;;;;;;9.10;99.90;;;;;;4172509;28;19932;-54
2022/02/19 07:32:53;;;;;;;;;;;9.10;99.90;;;;;;4169990;28;19979;-54
2022/02/19 07:34:55;;;;;;;;;;;9.20;99.90;;;;;;4166155;28;20392;-54
2022/02/19 07:36:57;;;;;;;;;;;9.20;99.90;;;;;;4170287;28;19925;-55
2022/02/19 07:38:59;;;;;;;;;;;9.20;99.90;;;;;;4176638;28;20023;-55
2022/02/19 07:41:01;;;;;;;;;;;9.20;99.90;;;;;;4175295;28;19925;-54
2022/02/19 07:43:03;;;;;;;;;;;9.20;99.90;;;;;;4173825;28;20327;-55
2022/02/19 07:45:05;;;;;;;;;;;9.20;99.90;;;;;;4170175;28;19928;-54
2022/02/19 07:47:07;;;;;;;;;;;9.20;99.90;;;;;;4169731;28;20290;-55
2022/02/19 07:58:33;;;;;;;;;;;9.30;99.90;;;;;;4169976;28;20328;-54
2022/02/19 08:00:35;;;;;;;;;;;9.30;99.90;;;;;;4169166;28;20275;-53
2022/02/19 08:02:37;;;;;;;;;;;9.30;99.90;;;;;;4170624;28;19924;-55
2022/02/19 08:04:39;;;;;;;;;;;9.20;99.90;;;;;;4169003;28;19929;-54
2022/02/19 08:06:41;;;;;;;;;;;9.20;99.90;;;;;;4166385;28;19925;-54
2022/02/19 08:08:43;;;;;;;;;;;9.30;99.90;;;;;;4170328;28;20292;-55
2022/02/19 08:10:48;;;;;;;;;;;9.30;99.90;;;;;;4164807;28;20047;-55
2022/02/19 08:12:50;;;;;;;;;;;9.30;99.90;;;;;;4171215;28;20393;-55
2022/02/19 08:14:52;;;;;;;;;;;9.40;99.90;;;;;;4166102;28;19978;-55
2022/02/19 08:16:54;;;;;;;;;;;9.40;99.90;;;;;;4178267;28;19932;-55
2022/02/19 08:18:57;;;;;;;;;;;9.40;99.90;;;;;;4168085;28;20595;-55
2022/02/19 08:20:59;;;;;;;;;;;9.30;99.90;;;;;;4164756;28;19982;-55
2022/02/19 08:23:03;;;;;;;;;;;9.30;99.90;;;;;;4167766;28;19932;-53
2022/02/19 08:25:05;;;;;;;;;;;9.30;99.90;;;;;;4169942;28;20385;-54
2022/02/19 08:27:08;;;;;;;;;;;9.30;99.90;;;;;;4167783;28;19964;-54
2022/02/19 08:29:10;;;;;;;;;;;9.30;99.90;;;;;;4177576;28;19935;-54
2022/02/19 08:31:12;;;;;;;;;;;9.30;99.90;;;;;;4175326;28;19971;-54
2022/02/19 08:33:14;;;;;;;;;;;9.30;99.90;;;;;;4176795;28;19935;-54
2022/02/19 08:35:16;;;;;;;;;;;9.30;99.90;;;;;;4175836;28;20404;-53
2022/02/19 08:37:18;;;;;;;;;;;9.30;99.90;;;;;;4173148;28;20397;-54
2022/02/19 08:39:20;;;;;;;;;;;9.30;99.90;;;;;;4172786;28;20450;-53
2022/02/19 08:41:22;;;;;;;;;;;9.30;99.90;;;;;;4174205;28;20293;-54
2022/02/19 08:43:24;;;;;;;;;;;9.30;99.90;;;;;;4166552;28;19935;-54
2022/02/19 08:45:26;;;;;;;;;;;9.30;99.90;;;;;;4169530;28;20415;-54
2022/02/19 08:47:28;;;;;;;;;;;9.40;99.90;;;;;;4175392;28;19968;-54
2022/02/19 08:49:31;;;;;;;;;;;9.30;99.90;;;;;;4172130;28;19960;-54
2022/02/19 08:51:33;;;;;;;;;;;9.40;99.90;;;;;;4169782;28;20405;-55
2022/02/19 08:53:36;;;;;;;;;;;9.40;99.90;;;;;;4169225;28;19928;-55
2022/02/19 08:55:38;;;;;;;;;;;9.50;99.90;;;;;;4172101;28;19925;-54
2022/02/19 08:57:40;;;;;;;;;;;9.50;99.90;;;;;;4177089;28;20019;-54
2022/02/19 08:59:42;;;;;;;;;;;9.50;99.90;;;;;;4173596;28;20364;-55
2022/02/19 09:01:44;;;;;;;;;;;9.60;99.90;;;;;;4177266;28;19925;-54
2022/02/19 09:03:46;;;;;;;;;;;9.60;99.90;;;;;;4169692;28;19964;-54
2022/02/19 09:05:48;;;;;;;;;;;9.70;99.90;;;;;;4167769;28;19933;-55
2022/02/19 09:07:50;;;;;;;;;;;9.80;99.90;;;;;;4169418;28;19956;-53
2022/02/19 09:09:52;;;;;;;;;;;9.80;99.90;;;;;;4172417;28;19964;-53
2022/02/19 09:11:54;;;;;;;;;;;9.90;99.90;;;;;;4171944;28;19929;-55
2022/02/19 09:13:58;;;;;;;;;;;9.80;99.90;;;;;;4176048;28;19933;-53
2022/02/19 09:16:00;;;;;;;;;;;9.80;99.90;;;;;;4156446;28;19929;-54
2022/02/19 09:18:03;;;;;;;;;;;9.80;99.90;;;;;;4174048;28;19958;-54
2022/02/19 09:20:05;;;;;;;;;;;9.90;99.90;;;;;;4177208;28;20385;-54
2022/02/19 09:22:07;;;;;;;;;;;9.80;99.90;;;;;;4173882;28;20355;-54
2022/02/19 09:24:09;;;;;;;;;;;9.90;99.90;;;;;;4170465;28;19928;-54
2022/02/19 09:26:11;;;;;;;;;;;9.90;99.90;;;;;;4162880;28;19964;-54
2022/02/19 09:28:13;;;;;;;;;;;10.00;99.90;;;;;;4170798;28;19929;-55
2022/02/19 09:30:15;;;;;;;;;;;10.00;99.90;;;;;;4175646;28;20312;-55
2022/02/19 09:32:17;;;;;;;;;;;10.00;99.90;;;;;;4172472;28;19936;-54
2022/02/19 09:34:22;;;;;;;;;;;10.00;99.90;;;;;;4169726;28;19933;-54
2022/02/19 09:36:24;;;;;;;;;;;10.00;99.90;;;;;;4170028;28;19974;-54
2022/02/19 09:38:26;;;;;;;;;;;10.00;99.90;;;;;;4166870;28;20027;-55
2022/02/19 09:40:28;;;;;;;;;;;10.10;99.90;;;;;;4164763;28;20016;-54
2022/02/19 09:42:30;;;;;;;;;;;10.10;99.90;;;;;;4167826;28;19925;-54
2022/02/19 09:44:32;;;;;;;;;;;10.10;99.90;;;;;;4173273;28;20027;-54
2022/02/19 09:46:34;;;;;;;;;;;10.10;99.90;;;;;;4173707;28;20354;-53
2022/02/19 09:48:37;;;;;;;;;;;10.20;99.90;;;;;;4176993;28;20437;-54
2022/02/19 09:50:39;;;;;;;;;;;10.20;99.90;;;;;;4167211;28;19925;-53
2022/02/19 09:52:41;;;;;;;;;;;10.30;99.90;;;;;;4165064;28;19929;-54
2022/02/19 09:54:43;;;;;;;;;;;10.30;99.90;;;;;;4161369;28;19948;-53
2022/02/19 09:56:45;;;;;;;;;;;10.30;99.90;;;;;;4169123;28;19929;-54
2022/02/19 09:58:47;;;;;;;;;;;10.20;99.90;;;;;;4183082;28;19950;-53
2022/02/19 10:00:49;;;;;;;;;;;10.30;99.90;;;;;;4178643;28;19956;-54
2022/02/19 10:02:51;;;;;;;;;;;10.30;99.90;;;;;;4172327;28;19940;-55
2022/02/19 10:04:54;;;;;;;;;;;10.30;99.90;;;;;;4170181;28;19925;-54
2022/02/19 10:06:59;;;;;;;;;;;10.20;99.90;;;;;;4178094;28;19925;-55
2022/02/19 10:09:09;;;;;;;;;;;10.30;99.90;;;;;;4177937;28;19929;-55
2022/02/19 10:11:12;;;;;;;;;;;10.30;99.90;;;;;;4178354;28;20731;-54
2022/02/19 10:13:46;;;;;;;;;;;10.40;99.90;;;;;;4166187;28;19931;-54
2022/02/19 10:15:51;;;;;;;;;;;10.40;99.90;;;;;;4174575;28;19936;-53
2022/02/19 10:17:54;;;;;;;;;;;10.50;99.90;;;;;;4173580;28;19932;-54
2022/02/19 10:20:02;;;;;;;;;;;10.60;99.90;;;;;;4177244;28;20412;-53
2022/02/19 10:22:10;;;;;;;;;;;10.60;99.90;;;;;;4175864;28;19928;-55
2022/02/19 10:24:12;;;;;;;;;;;10.60;99.90;;;;;;4174157;28;19925;-55
2022/02/19 10:26:15;;;;;;;;;;;10.60;99.90;;;;;;4175773;28;19971;-54
2022/02/19 10:28:22;;;;;;;;;;;10.60;99.90;;;;;;4175626;28;20052;-55
2022/02/19 10:30:25;;;;;;;;;;;10.60;99.90;;;;;;4175984;28;20051;-54
2022/02/19 10:32:27;;;;;;;;;;;10.60;99.90;;;;;;4168392;28;19976;-55
2022/02/19 10:34:29;;;;;;;;;;;10.60;99.90;;;;;;4176653;28;20020;-52
2022/02/19 10:36:40;;;;;;;;;;;10.70;99.90;;;;;;4172428;28;19932;-55
2022/02/19 10:38:52;;;;;;;;;;;10.70;99.90;;;;;;4164902;28;19932;-53
2022/02/19 10:40:57;;;;;;;;;;;10.70;99.90;;;;;;4172837;28;20367;-55
2022/02/19 10:43:02;;;;;;;;;;;10.70;99.90;;;;;;4166647;28;19940;-54
2022/02/19 10:45:10;;;;;;;;;;;10.80;99.90;;;;;;4169102;28;20016;-54
2022/02/19 10:47:19;;;;;;;;;;;10.80;99.90;;;;;;4171943;28;19948;-55
2022/02/19 10:49:22;;;;;;;;;;;10.90;99.90;;;;;;4174137;28;19959;-54
2022/02/19 10:51:24;;;;;;;;;;;11.00;99.90;;;;;;4174988;28;19963;-54
2022/02/19 10:53:27;;;;;;;;;;;11.00;99.90;;;;;;4189405;28;20877;-54
2022/02/19 10:55:30;;;;;;;;;;;11.00;99.90;;;;;;4168338;28;19929;-54
2022/02/19 10:57:36;;;;;;;;;;;11.00;99.90;;;;;;4170298;28;19983;-54
2022/02/19 10:59:38;;;;;;;;;;;11.00;99.90;;;;;;4162620;28;19984;-54
2022/02/19 11:01:44;;;;;;;;;;;11.10;99.90;;;;;;4163332;28;19925;-54
2022/02/19 11:03:47;;;;;;;;;;;11.10;99.90;;;;;;4170227;28;20048;-54
2022/02/19 11:05:49;;;;;;;;;;;11.20;99.90;;;;;;4169541;28;19974;-54
2022/02/19 11:07:51;;;;;;;;;;;11.20;99.90;;;;;;4169402;28;19959;-53
2022/02/19 11:09:53;;;;;;;;;;;11.30;99.90;;;;;;4169236;28;19948;-55
2022/02/19 11:11:57;;;;;;;;;;;11.30;99.90;;;;;;4168122;28;20011;-54
2022/02/19 11:14:00;;;;;;;;;;;11.40;99.90;;;;;;4162361;28;19928;-54
2022/02/19 11:16:06;;;;;;;;;;;11.50;99.90;;;;;;4172186;28;19963;-54
2022/02/19 11:18:09;;;;;;;;;;;11.50;99.90;;;;;;4172829;28;19979;-54
2022/02/19 11:20:12;;;;;;;;;;;11.50;99.90;;;;;;4165579;28;19960;-54
2022/02/19 11:22:16;;;;;;;;;;;11.50;99.90;;;;;;4165243;28;19984;-54
2022/02/19 11:24:18;;;;;;;;;;;11.30;99.90;;;;;;4163187;28;19964;-54
2022/02/19 11:26:21;;;;;;;;;;;11.40;99.90;;;;;;4171087;28;19971;-54
2022/02/19 11:28:25;;;;;;;;;;;11.50;99.90;;;;;;4166081;28;20520;-53
2022/02/19 11:30:30;;;;;;;;;;;11.50;99.90;;;;;;4162053;28;19928;-54
2022/02/19 11:32:34;;;;;;;;;;;11.50;99.90;;;;;;4165624;28;20020;-54
2022/02/19 11:34:37;;;;;;;;;;;11.50;99.90;;;;;;4165971;28;20047;-54
2022/02/19 11:36:39;;;;;;;;;;;11.50;99.90;;;;;;4167472;28;20040;-54
2022/02/19 11:38:48;;;;;;;;;;;11.50;99.90;;;;;;4161685;28;20333;-54
2022/02/19 11:40:55;;;;;;;;;;;11.60;99.90;;;;;;4162485;28;20384;-54
2022/02/19 11:42:57;;;;;;;;;;;11.60;99.90;;;;;;4156212;28;19965;-55
2022/02/19 11:45:14;;;;;;;;;;;11.60;99.90;;;;;;4167781;28;19934;-55
2022/02/19 11:47:25;;;;;;;;;;;11.60;99.90;;;;;;4170651;28;19929;-54
2022/02/19 11:49:28;;;;;;;;;;;11.70;99.90;;;;;;4175744;28;20448;-53
2022/02/19 11:51:31;;;;;;;;;;;11.70;99.90;;;;;;4173742;28;19928;-54
2022/02/19 11:53:34;;;;;;;;;;;11.70;99.90;;;;;;4162014;28;20029;-55
2022/02/19 11:55:43;;;;;;;;;;;11.80;99.90;;;;;;4176576;28;19964;-55
2022/02/19 11:57:58;;;;;;;;;;;11.80;99.90;;;;;;4173381;28;19928;-54
2022/02/19 12:00:00;;;;;;;;;;;11.90;99.90;;;;;;4177809;28;19998;-55
2022/02/19 12:02:11;;;;;;;;;;;11.90;99.90;;;;;;4172422;28;19935;-53
2022/02/19 12:04:14;;;;;;;;;;;11.80;99.90;;;;;;4170772;28;19967;-55
2022/02/19 12:06:23;;;;;;;;;;;11.90;99.90;;;;;;4168234;28;19937;-52
2022/02/19 12:08:25;;;;;;;;;;;11.90;99.90;;;;;;4168265;28;19924;-54
2022/02/19 12:10:27;;;;;;;;;;;12.00;99.90;;;;;;4169487;28;20304;-54